Time;durP1;ratioP1;P1;durP2;ratioP2;P2;SDS_P1;SDS_P2;PMS_P1;PMS_P2;Temp;Humidity;BMP_temperature;BMP_pressure;BME280_temperature;BME280_humidity;BME280_pressure;Samples;Min_cycle;Max_cycle;Signal;HPM_P1;HPM_P2
2022/06/29 00:02:14;;;;;;;;;;;;;;;-142.75;100.00;76629.34;4972216;28;20521;-66
2022/06/29 00:04:39;;;;;;;;;;;;;;;-142.75;100.00;76621.47;4972182;28;19914;-66
2022/06/29 00:07:04;;;;;;;;;;;;;;;-142.75;100.00;76627.38;4972069;28;19915;-66
2022/06/29 00:09:29;;;;;;;;;;;;;;;-142.75;100.00;76617.53;4970572;28;19921;-66
2022/06/29 00:11:55;;;;;;;;;;;;;;;-142.75;100.00;76621.47;4971927;28;19918;-65
2022/06/29 00:14:20;;;;;;;;;;;;;;;-142.75;100.00;76621.47;4972058;28;19949;-66
2022/06/29 00:16:45;;;;;;;;;;;;;;;-142.75;100.00;76623.44;4972082;28;20004;-66
2022/06/29 00:19:10;;;;;;;;;;;;;;;-142.75;100.00;76629.34;4971660;28;20387;-66
2022/06/29 00:21:35;;;;;;;;;;;;;;;-142.75;100.00;76633.28;4971982;28;20450;-65
2022/06/29 00:24:01;;;;;;;;;;;;;;;-142.75;100.00;76633.28;4971958;28;19918;-66
2022/06/29 00:26:26;;;;;;;;;;;;;;;-142.75;100.00;76633.28;4971699;28;19918;-66
2022/06/29 00:28:52;;;;;;;;;;;;;;;-142.75;100.00;76633.28;4971179;28;19914;-65
2022/06/29 00:31:22;;;;;;;;;;;;;;;-142.75;100.00;76633.28;4971937;28;19914;-66
2022/06/29 00:33:47;;;;;;;;;;;;;;;-142.75;100.00;76633.28;4971908;28;19953;-65
2022/06/29 00:36:12;;;;;;;;;;;;;;;-142.75;100.00;76641.16;4971953;28;19921;-65
2022/06/29 00:38:38;;;;;;;;;;;;;;;-142.75;100.00;76643.13;4970261;28;19999;-66
2022/06/29 00:41:03;;;;;;;;;;;;;;;-142.75;100.00;76645.09;4971534;28;19927;-66
2022/06/29 00:43:28;;;;;;;;;;;;;;;-142.75;100.00;76643.13;4971632;28;20407;-65
2022/06/29 00:45:53;;;;;;;;;;;;;;;-142.75;100.00;76641.16;4971504;28;20399;-66
2022/06/29 00:48:19;;;;;;;;;;;;;;;-142.75;100.00;76649.03;4971265;28;20304;-66
2022/06/29 00:50:44;;;;;;;;;;;;;;;-142.75;100.00;76647.06;4971533;28;19918;-66
2022/06/29 00:53:13;;;;;;;;;;;;;;;-142.75;100.00;76649.03;4970231;28;19914;-66
2022/06/29 00:55:40;;;;;;;;;;;;;;;-142.75;100.00;76660.84;4971327;28;19918;-65
2022/06/29 00:58:08;;;;;;;;;;;;;;;-142.75;100.00;76666.75;4971117;28;19911;-66
2022/06/29 01:00:34;;;;;;;;;;;;;;;-142.75;100.00;76668.72;4971301;28;19924;-66
2022/06/29 01:03:02;;;;;;;;;;;;;;;-142.75;100.00;76664.78;4971295;28;19918;-66
2022/06/29 01:05:28;;;;;;;;;;;;;;;-142.75;100.00;76664.78;4971227;28;19921;-66
2022/06/29 01:07:54;;;;;;;;;;;;;;;-142.75;100.00;76668.72;4970980;28;20402;-65
2022/06/29 01:10:20;;;;;;;;;;;;;;;-142.75;100.00;76670.69;4971129;28;19914;-66
2022/06/29 01:12:49;;;;;;;;;;;;;;;-142.75;100.00;76668.72;4971205;28;19914;-66
2022/06/29 01:15:14;;;;;;;;;;;;;;;-142.75;100.00;76668.72;4971183;28;20402;-66
2022/06/29 01:17:39;;;;;;;;;;;;;;;-142.75;100.00;76668.72;4971154;28;19960;-66
2022/06/29 01:20:05;;;;;;;;;;;;;;;-142.75;100.00;76666.75;4970797;28;20386;-66
2022/06/29 01:22:30;;;;;;;;;;;;;;;-142.75;100.00;76666.75;4970966;28;19918;-66
2022/06/29 01:24:55;;;;;;;;;;;;;;;-142.75;100.00;76670.69;4970970;28;19914;-66
2022/06/29 01:27:22;;;;;;;;;;;;;;;-142.75;100.00;76664.78;4970890;28;19918;-66
2022/06/29 01:29:48;;;;;;;;;;;;;;;-142.75;100.00;76666.75;4970660;28;19914;-66
2022/06/29 01:32:13;;;;;;;;;;;;;;;-142.75;100.00;76672.66;4970904;28;20291;-66
2022/06/29 01:34:39;;;;;;;;;;;;;;;-142.75;100.00;76682.50;4970883;28;19968;-66
2022/06/29 01:37:05;;;;;;;;;;;;;;;-142.75;100.00;76680.53;4970616;28;19922;-66
2022/06/29 01:39:31;;;;;;;;;;;;;;;-142.75;100.00;76686.44;4969411;28;19929;-66
2022/06/29 01:41:56;;;;;;;;;;;;;;;-142.75;100.00;76694.31;4970796;28;19989;-66
2022/06/29 01:44:22;;;;;;;;;;;;;;;-142.75;100.00;76690.38;4970779;28;19956;-65
2022/06/29 01:46:47;;;;;;;;;;;;;;;-142.75;100.00;76690.38;4970648;28;19964;-66
2022/06/29 01:49:12;;;;;;;;;;;;;;;-142.75;100.00;76696.28;4970473;28;19915;-66
2022/06/29 01:51:38;;;;;;;;;;;;;;;-142.75;100.00;76700.22;4970576;28;19981;-66
2022/06/29 01:54:03;;;;;;;;;;;;;;;-142.75;100.00;76700.22;4970631;28;19950;-66
2022/06/29 01:56:28;;;;;;;;;;;;;;;-142.75;100.00;76704.16;4970492;28;19914;-66
2022/06/29 01:58:54;;;;;;;;;;;;;;;-142.75;100.00;76704.16;4970254;28;19919;-66
2022/06/29 02:01:19;;;;;;;;;;;;;;;-142.75;100.00;76706.13;4970561;28;20011;-65
2022/06/29 02:03:44;;;;;;;;;;;;;;;-142.75;100.00;76708.09;4970525;28;20056;-66
2022/06/29 02:06:10;;;;;;;;;;;;;;;-142.75;100.00;76712.03;4970414;28;20537;-66
2022/06/29 02:08:35;;;;;;;;;;;;;;;-142.75;100.00;76708.09;4970090;28;20494;-66
2022/06/29 02:11:00;;;;;;;;;;;;;;;-142.75;100.00;76704.16;4970424;28;19918;-66
2022/06/29 02:13:26;;;;;;;;;;;;;;;-142.75;100.00;76704.16;4970420;28;19920;-66
2022/06/29 02:15:51;;;;;;;;;;;;;;;-142.75;100.00;76704.16;4970365;28;19953;-65
2022/06/29 02:18:16;;;;;;;;;;;;;;;-142.75;100.00;76708.09;4970053;28;20287;-66
2022/06/29 02:20:42;;;;;;;;;;;;;;;-142.75;100.00;76714.00;4970327;28;19914;-66
2022/06/29 02:23:07;;;;;;;;;;;;;;;-142.75;100.00;76723.84;4970230;28;19930;-66
2022/06/29 02:25:32;;;;;;;;;;;;;;;-142.75;100.00;76727.78;4970090;28;19914;-66
2022/06/29 02:27:57;;;;;;;;;;;;;;;-142.75;100.00;76727.78;4970321;28;20005;-65
2022/06/29 02:34:43;;;;;;;;;;;;;;;-142.75;100.00;76727.78;4970203;28;19915;-66
2022/06/29 02:35:52;;;;;;;;;;;;;;;-142.75;100.00;76733.69;4969915;28;19925;-64
2022/06/29 02:38:17;;;;;;;;;;;;;;;-142.75;100.00;76739.59;4969784;28;19914;-66
2022/06/29 02:40:42;;;;;;;;;;;;;;;-142.75;100.00;76733.69;4970121;28;19915;-66
2022/06/29 02:43:08;;;;;;;;;;;;;;;-142.75;100.00;76731.72;4970098;28;19921;-66
2022/06/29 02:45:33;;;;;;;;;;;;;;;-142.75;100.00;76731.72;4970005;28;20467;-66
2022/06/29 02:47:58;;;;;;;;;;;;;;;-142.75;100.00;76729.75;4969633;28;19914;-66
2022/06/29 02:50:23;;;;;;;;;;;;;;;-142.75;100.00;76733.69;4970227;28;19914;-66
2022/06/29 02:52:49;;;;;;;;;;;;;;;-142.75;100.00;76735.66;4973290;28;20376;-66
2022/06/29 02:55:14;;;;;;;;;;;;;;;-142.75;100.00;76729.75;4973247;28;19936;-66
2022/06/29 02:57:39;;;;;;;;;;;;;;;-142.75;100.00;76735.66;4973077;28;19914;-66
2022/06/29 03:00:05;;;;;;;;;;;;;;;-142.75;100.00;76737.63;4972889;28;19922;-66
2022/06/29 03:02:30;;;;;;;;;;;;;;;-142.75;100.00;76729.75;4973132;28;19975;-66
2022/06/29 03:04:56;;;;;;;;;;;;;;;-142.75;100.00;76731.72;4973050;28;19917;-66
2022/06/29 03:07:21;;;;;;;;;;;;;;;-142.75;100.00;76729.75;4972975;28;20001;-65
2022/06/29 03:09:46;;;;;;;;;;;;;;;-142.75;100.00;76737.63;4972757;28;19918;-66
2022/06/29 03:12:11;;;;;;;;;;;;;;;-142.75;100.00;76731.72;4973017;28;19953;-66
2022/06/29 03:14:36;;;;;;;;;;;;;;;-142.75;100.00;76735.66;4972969;28;19921;-66
2022/06/29 03:17:02;;;;;;;;;;;;;;;-142.75;100.00;76737.63;4972825;28;19921;-66
2022/06/29 03:19:27;;;;;;;;;;;;;;;-142.75;100.00;76733.69;4972473;28;19918;-66
2022/06/29 03:21:53;;;;;;;;;;;;;;;-142.75;100.00;76733.69;4972876;28;20414;-65
2022/06/29 03:24:18;;;;;;;;;;;;;;;-142.75;100.00;76735.66;4972770;28;19915;-66
2022/06/29 03:26:44;;;;;;;;;;;;;;;-142.75;100.00;76729.75;4971494;28;19937;-66
2022/06/29 03:29:09;;;;;;;;;;;;;;;-142.75;100.00;76727.78;4972459;28;20307;-65
2022/06/29 03:31:34;;;;;;;;;;;;;;;-142.75;100.00;76735.66;4972671;28;20368;-66
2022/06/29 03:33:59;;;;;;;;;;;;;;;-142.75;100.00;76731.72;4972634;28;19914;-66
2022/06/29 03:36:24;;;;;;;;;;;;;;;-142.75;100.00;76729.75;4992095;22;19926;-68
2022/06/29 03:38:50;;;;;;;;;;;;;;;-142.75;100.00;76727.78;4950733;28;20343;-69
2022/06/29 03:41:15;;;;;;;;;;;;;;;-142.75;100.00;76719.91;4952460;29;20005;-68
2022/06/29 03:43:40;;;;;;;;;;;;;;;-142.75;100.00;76725.81;4953286;29;19921;-69
2022/06/29 03:46:05;;;;;;;;;;;;;;;-142.75;100.00;76712.03;4953181;28;19919;-69
2022/06/29 03:48:30;;;;;;;;;;;;;;;-142.75;100.00;76719.91;4952828;28;19968;-68
2022/06/29 03:50:56;;;;;;;;;;;;;;;-142.75;100.00;76725.81;4953158;28;19919;-68
2022/06/29 03:53:21;;;;;;;;;;;;;;;-142.75;100.00;76725.81;4953045;28;20289;-69
2022/06/29 03:55:46;;;;;;;;;;;;;;;-142.75;100.00;76719.91;4967875;28;19922;-68
2022/06/29 03:58:11;;;;;;;;;;;;;;;-142.75;100.00;76725.81;4952733;28;19972;-69
2022/06/29 04:00:36;;;;;;;;;;;;;;;-142.75;100.00;76725.81;4952969;28;19922;-69
2022/06/29 04:03:01;;;;;;;;;;;;;;;-142.75;100.00;76731.72;4952013;28;19915;-69
2022/06/29 04:05:27;;;;;;;;;;;;;;;-142.75;100.00;76735.66;4952894;28;19921;-68
2022/06/29 04:07:52;;;;;;;;;;;;;;;-142.75;100.00;76731.72;4967362;28;20007;-68
2022/06/29 04:10:17;;;;;;;;;;;;;;;-142.75;100.00;76723.84;4967768;28;20001;-67
2022/06/29 04:12:43;;;;;;;;;;;;;;;-142.75;100.00;76727.78;4952869;28;19918;-69
2022/06/29 04:15:08;;;;;;;;;;;;;;;-142.75;100.00;76729.75;4951515;28;19941;-69
2022/06/29 04:17:33;;;;;;;;;;;;;;;-142.75;100.00;76733.69;4967600;28;20354;-68
2022/06/29 04:19:58;;;;;;;;;;;;;;;-142.75;100.00;76729.75;4952285;28;20021;-69
2022/06/29 04:22:24;;;;;;;;;;;;;;;-142.75;100.00;76727.78;4952832;28;20433;-69
2022/06/29 04:24:50;;;;;;;;;;;;;;;-142.75;100.00;76723.84;4952613;28;19950;-69
2022/06/29 04:27:15;;;;;;;;;;;;;;;-142.75;100.00;76719.91;4952627;28;19953;-68
2022/06/29 04:29:40;;;;;;;;;;;;;;;-142.75;100.00;76712.03;4952488;28;19914;-68
2022/06/29 04:32:05;;;;;;;;;;;;;;;-142.75;100.00;76710.06;4952535;28;19919;-69
2022/06/29 04:34:31;;;;;;;;;;;;;;;-142.75;100.00;76704.16;4952445;28;19919;-69
2022/06/29 04:36:56;;;;;;;;;;;;;;;-142.75;100.00;76694.31;4951078;28;19918;-69
2022/06/29 04:39:22;;;;;;;;;;;;;;;-142.75;100.00;76692.34;4952077;28;19963;-69
2022/06/29 04:41:47;;;;;;;;;;;;;;;-142.75;100.00;76686.44;4967252;28;19919;-66
2022/06/29 04:44:13;;;;;;;;;;;;;;;-142.75;100.00;76678.56;4951111;28;19918;-69
2022/06/29 04:46:38;;;;;;;;;;;;;;;-142.75;100.00;76668.72;4952265;28;20418;-69
2022/06/29 04:49:03;;;;;;;;;;;;;;;-142.75;100.00;76656.91;4950658;28;19922;-69
2022/06/29 04:51:30;;;;;;;;;;;;;;;-142.75;100.00;76651.00;4952238;28;19922;-69
2022/06/29 04:53:56;;;;;;;;;;;;;;;-142.75;100.00;76641.16;4952236;28;19915;-69
2022/06/29 04:56:22;;;;;;;;;;;;;;;-142.75;100.00;76635.25;4952117;28;19921;-68
2022/06/29 04:58:48;;;;;;;;;;;;;;;-142.75;100.00;76639.19;4951760;28;19969;-69
2022/06/29 05:01:13;;;;;;;;;;;;;;;-142.75;100.00;76633.28;4952177;28;19962;-69
2022/06/29 05:03:38;;;;;;;;;;;;;;;-142.75;100.00;76629.34;4951969;28;19953;-68
2022/06/29 05:06:04;;;;;;;;;;;;;;;-142.75;100.00;76629.34;4951879;28;19914;-69
2022/06/29 05:08:29;;;;;;;;;;;;;;;-142.75;100.00;76621.47;4951771;28;19915;-69
2022/06/29 05:10:54;;;;;;;;;;;;;;;-142.75;100.00;76617.53;4952004;28;19993;-69
2022/06/29 05:13:20;;;;;;;;;;;;;;;-142.75;100.00;76605.72;4951802;28;20387;-68
2022/06/29 05:15:46;;;;;;;;;;;;;;;-142.75;100.00;76605.72;4951925;28;19968;-67
2022/06/29 05:18:11;;;;;;;;;;;;;;;-142.75;100.00;76586.03;4951399;28;19922;-67
2022/06/29 05:20:36;;;;;;;;;;;;;;;-142.75;100.00;76570.28;4950431;28;19922;-69
2022/06/29 05:23:04;;;;;;;;;;;;;;;-142.75;100.00;76570.28;4951735;28;19918;-68
2022/06/29 05:25:29;;;;;;;;;;;;;;;-142.75;100.00;76558.47;4966648;28;20284;-69
2022/06/29 05:27:54;;;;;;;;;;;;;;;-142.75;100.00;76544.69;4950125;28;19921;-67
2022/06/29 05:30:19;;;;;;;;;;;;;;;-142.75;100.00;76538.78;4951671;28;20290;-69
2022/06/29 05:32:45;;;;;;;;;;;;;;;-142.75;100.00;76527.00;4951583;28;19915;-68
2022/06/29 05:35:10;;;;;;;;;;;;;;;-142.75;100.00;76523.06;4951552;28;19921;-69
2022/06/29 05:37:35;;;;;;;;;;;;;;;-142.75;100.00;76513.22;4951390;28;19930;-69
2022/06/29 05:40:01;;;;;;;;;;;;;;;-142.75;100.00;76497.47;4965984;28;19918;-68
2022/06/29 05:42:26;;;;;;;;;;;;;;;-142.75;100.00;76483.69;4966315;28;20355;-67
2022/06/29 05:44:51;;;;;;;;;;;;;;;-142.75;100.00;76475.81;4966318;28;19915;-66
2022/06/29 05:47:17;;;;;;;;;;;;;;;-142.75;100.00;76462.03;4966108;28;19919;-68
2022/06/29 05:49:42;;;;;;;;;;;;;;;-142.75;100.00;76450.22;4965906;28;19922;-69
2022/06/29 05:52:08;;;;;;;;;;;;;;;-142.75;100.00;76448.25;4966253;28;20475;-70
2022/06/29 05:54:33;;;;;;;;;;;;;;;-142.75;100.00;76444.31;4951410;28;19915;-70
2022/06/29 05:56:58;;;;;;;;;;;;;;;-142.75;100.00;76422.66;4950595;28;19915;-68
2022/06/29 05:59:24;;;;;;;;;;;;;;;-142.75;100.00;76408.88;4950085;28;19969;-68
2022/06/29 06:01:49;;;;;;;;;;;;;;;-142.75;100.00;76401.00;4950356;28;19964;-68
2022/06/29 06:04:14;;;;;;;;;;;;;;;-142.75;100.00;76395.09;4950359;28;20034;-68
2022/06/29 06:06:39;;;;;;;;;;;;;;;-142.75;100.00;76373.44;4965189;28;20001;-68
2022/06/29 06:09:05;;;;;;;;;;;;;;;-142.75;100.00;76361.63;4948794;28;20457;-68
2022/06/29 06:11:30;;;;;;;;;;;;;;;-142.75;100.00;76361.63;4950023;28;19919;-69
2022/06/29 06:13:55;;;;;;;;;;;;;;;-142.75;100.00;76353.78;4948979;28;20535;-68
2022/06/29 06:16:20;;;;;;;;;;;;;;;-142.75;100.00;76343.94;4950205;28;20013;-68
2022/06/29 06:18:45;;;;;;;;;;;;;;;-142.75;100.00;76318.34;4964479;28;19923;-68
2022/06/29 06:21:11;;;;;;;;;;;;;;;-142.75;100.00;76314.41;4964970;28;19938;-68
2022/06/29 06:23:36;;;;;;;;;;;;;;;-142.75;100.00;76304.56;4950202;28;19925;-68
2022/06/29 06:26:01;;;;;;;;;;;;;;;-142.75;100.00;76294.72;4951075;28;20273;-68
2022/06/29 06:28:26;;;;;;;;;;;;;;;-142.75;100.00;76284.88;4967918;28;20370;-68
2022/06/29 06:30:51;;;;;;;;;;;;;;;-142.75;100.00;76280.94;4968232;28;19915;-68
2022/06/29 06:33:17;;;;;;;;;;;;;;;-142.75;100.00;76257.31;4953237;28;20461;-69
2022/06/29 06:35:42;;;;;;;;;;;;;;;-142.75;100.00;76243.53;4953398;28;20009;-68
2022/06/29 06:38:07;;;;;;;;;;;;;;;-142.75;100.00;76233.69;4952590;28;19922;-68
2022/06/29 06:43:16;;;;;;;;;;;;;;;-142.75;100.00;76212.03;4953417;28;19940;-68
2022/06/29 06:45:42;;;;;;;;;;;;;;;-142.75;100.00;76204.16;4953185;28;20530;-68
2022/06/29 06:48:07;;;;;;;;;;;;;;;-142.75;100.00;76184.50;4952846;28;20829;-68
2022/06/29 06:50:32;;;;;;;;;;;;;;;-142.75;100.00;76168.75;4953132;28;19915;-68
2022/06/29 06:52:57;;;;;;;;;;;;;;;-142.75;100.00;76156.94;4955654;28;19925;-68
2022/06/29 06:55:23;;;;;;;;;;;;;;;-142.75;100.00;76127.41;4956771;28;19918;-68
2022/06/29 06:57:48;;;;;;;;;;;;;;;-142.75;100.00;76113.63;4952615;28;20303;-67
2022/06/29 07:00:13;;;;;;;;;;;;;;;-142.75;100.00;76101.81;4952851;28;20368;-67
2022/06/29 07:02:38;;;;;;;;;;;;;;;-142.75;100.00;76078.19;4952747;28;19919;-69
2022/06/29 07:05:04;;;;;;;;;;;;;;;-142.75;100.00;76070.34;4952923;28;19925;-68
2022/06/29 07:07:29;;;;;;;;;;;;;;;-142.75;100.00;76072.31;4951499;28;19921;-68
2022/06/29 07:09:54;;;;;;;;;;;;;;;-142.75;100.00;76058.53;4952551;28;19915;-68
2022/06/29 07:12:19;;;;;;;;;;;;;;;-142.75;100.00;76034.91;4952693;28;19922;-68
2022/06/29 07:14:45;;;;;;;;;;;;;;;-142.75;100.00;76021.13;4952768;28;19921;-68
2022/06/29 07:17:10;;;;;;;;;;;;;;;-142.75;100.00;76003.41;4952521;28;20407;-68
2022/06/29 07:19:35;;;;;;;;;;;;;;;-142.75;100.00;75987.66;4952379;28;20020;-68
2022/06/29 07:22:00;;;;;;;;;;;;;;;-142.75;100.00;75979.78;4951712;28;19915;-69
2022/06/29 07:24:26;;;;;;;;;;;;;;;-142.75;100.00;75967.97;4951460;28;19914;-69
2022/06/29 07:26:51;;;;;;;;;;;;;;;-142.75;100.00;75958.16;4952431;28;20408;-69
2022/06/29 07:29:16;;;;;;;;;;;;;;;-142.75;100.00;75938.47;4952153;28;19918;-68
2022/06/29 07:31:41;;;;;;;;;;;;;;;-142.75;100.00;75936.50;4952451;29;19918;-69
2022/06/29 07:34:06;;;;;;;;;;;;;;;-142.75;100.00;75926.66;4951197;28;19925;-68
2022/06/29 07:36:32;;;;;;;;;;;;;;;-142.75;100.00;75912.88;4952009;28;20288;-68
2022/06/29 07:38:57;;;;;;;;;;;;;;;-142.75;100.00;75893.19;4951291;28;19919;-69
2022/06/29 07:41:22;;;;;;;;;;;;;;;-142.75;100.00;75885.31;4952269;28;19915;-68
2022/06/29 07:43:47;;;;;;;;;;;;;;;-142.75;100.00;75877.44;4952598;29;20275;-68
2022/06/29 07:46:12;;;;;;;;;;;;;;;-142.75;100.00;75869.56;4952241;28;19919;-69
2022/06/29 07:48:38;;;;;;;;;;;;;;;-142.75;100.00;75853.84;4952096;28;20434;-69
2022/06/29 07:51:03;;;;;;;;;;;;;;;-142.75;100.00;75844.00;4952399;28;20407;-69
2022/06/29 07:53:28;;;;;;;;;;;;;;;-142.75;100.00;75826.28;4952565;28;20434;-68
2022/06/29 07:55:53;;;;;;;;;;;;;;;-142.75;100.00;75802.66;4952229;28;20288;-68
2022/06/29 07:58:19;;;;;;;;;;;;;;;-142.75;100.00;75782.97;4952139;29;20001;-68
2022/06/29 08:00:47;;;;;;;;;;;;;;;-142.75;100.00;75771.16;4950771;28;20041;-68
2022/06/29 08:03:12;;;;;;;;;;;;;;;-142.75;100.00;75763.28;4952252;28;19914;-68
2022/06/29 08:05:37;;;;;;;;;;;;;;;-142.75;100.00;75745.59;4952163;28;20005;-69
2022/06/29 08:08:03;;;;;;;;;;;;;;;-142.75;100.00;75735.75;4951766;28;19914;-68
2022/06/29 08:10:28;;;;;;;;;;;;;;;-142.75;100.00;75721.97;4951639;28;19945;-68
2022/06/29 08:12:53;;;;;;;;;;;;;;;-142.75;100.00;75716.06;4950767;28;19976;-69
2022/06/29 08:15:19;;;;;;;;;;;;;;;-142.75;100.00;75710.16;4951767;28;19919;-68
2022/06/29 08:17:45;;;;;;;;;;;;;;;-142.75;100.00;75700.31;4951647;28;19914;-68
2022/06/29 08:20:10;;;;;;;;;;;;;;;-142.75;100.00;75686.53;4951743;28;20273;-68
2022/06/29 08:22:35;;;;;;;;;;;;;;;-142.75;100.00;75662.94;4951785;28;19950;-68
2022/06/29 08:25:01;;;;;;;;;;;;;;;-142.75;100.00;75641.28;4951878;28;19976;-68
2022/06/29 08:27:27;;;;;;;;;;;;;;;-142.75;100.00;75625.53;4949982;28;19925;-69
2022/06/29 08:29:52;;;;;;;;;;;;;;;-142.75;100.00;75605.84;4951283;28;19968;-68
2022/06/29 08:32:17;;;;;;;;;;;;;;;-142.75;100.00;75594.06;4952136;28;19918;-69
2022/06/29 08:34:42;;;;;;;;;;;;;;;-142.75;100.00;75578.31;4954917;28;19937;-68
2022/06/29 08:37:08;;;;;;;;;;;;;;;-142.75;100.00;75560.59;4951377;28;19922;-67
2022/06/29 08:39:33;;;;;;;;;;;;;;;-142.75;100.00;75540.91;4951268;29;19919;-68
2022/06/29 08:42:03;;;;;;;;;;;;;;;-142.75;100.00;75529.09;4951408;28;20029;-68
2022/06/29 08:44:31;;;;;;;;;;;;;;;-142.75;100.00;75517.28;4951216;28;19914;-68
2022/06/29 08:46:58;;;;;;;;;;;;;;;-142.75;100.00;75511.41;4950160;29;19920;-69
2022/06/29 08:49:24;;;;;;;;;;;;;;;-142.75;100.00;75503.53;4950735;28;19919;-70
2022/06/29 08:51:49;;;;;;;;;;;;;;;-142.75;100.00;75489.75;4951345;28;20372;-69
2022/06/29 08:54:15;;;;;;;;;;;;;;;-142.75;100.00;75458.25;4951481;29;19915;-68
2022/06/29 08:56:40;;;;;;;;;;;;;;;-142.75;100.00;75446.44;4950974;28;19925;-68
2022/06/29 08:59:06;;;;;;;;;;;;;;;-142.75;100.00;75424.81;4950866;28;19918;-68
2022/06/29 09:01:31;;;;;;;;;;;;;;;-142.75;100.00;75411.03;4953605;28;19925;-69
2022/06/29 09:03:56;;;;;;;;;;;;;;;-142.75;100.00;75405.13;4961138;28;19918;-68
2022/06/29 09:06:22;;;;;;;;;;;;;;;-142.75;93.28;75407.09;4959578;28;20486;-69
2022/06/29 09:08:48;;;;;;;;;;;;;;;-142.75;93.51;75409.06;4959758;28;19929;-69
2022/06/29 09:11:20;;;;;;;;;;;;;;;-142.75;97.68;75413.00;4960888;28;19921;-68
2022/06/29 09:13:46;;;;;;;;;;;;;;;-142.75;91.06;75418.91;4965734;28;19918;-69
2022/06/29 09:16:11;;;;;;;;;;;;;;;-142.75;87.73;75420.88;4950878;28;20407;-69
2022/06/29 09:18:36;;;;;;;;;;;;;;;-142.75;89.31;75389.38;4950540;28;19919;-68
2022/06/29 09:21:03;;;;;;;;;;;;;;;-142.75;86.03;75385.44;4949762;28;20380;-68
2022/06/29 09:23:29;;;;;;;;;;;;;;;-142.75;86.53;75391.34;4950929;28;19914;-68
2022/06/29 09:25:54;;;;;;;;;;;;;;;-142.75;92.38;75371.66;4949439;28;19964;-68
2022/06/29 09:28:21;;;;;;;;;;;;;;;-142.75;93.97;75365.75;4950592;28;19929;-68
2022/06/29 09:30:46;;;;;;;;;;;;;;;-142.75;85.78;75365.75;4950631;28;20368;-69
2022/06/29 09:33:11;;;;;;;;;;;;;;;-142.75;88.73;75369.69;4950756;28;19960;-68
2022/06/29 09:35:38;;;;;;;;;;;;;;;-142.75;92.17;75393.31;4950799;28;19926;-69
2022/06/29 09:38:22;;;;;;;;;;;;;;;-142.75;95.91;75389.38;4948363;28;19969;-68
2022/06/29 09:40:59;;;;;;;;;;;;;;;-142.75;88.82;75385.44;4948331;28;19993;-68
2022/06/29 09:43:25;;;;;;;;;;;;;;;-142.75;86.62;75383.47;4949881;28;19984;-68
2022/06/29 09:45:51;;;;;;;;;;;;;;;-142.75;95.84;75361.84;4949897;28;19922;-69
2022/06/29 09:48:20;;;;;;;;;;;;;;;-142.75;90.62;75353.97;4949511;28;20339;-70
2022/06/29 09:50:46;;;;;;;;;;;;;;;-142.75;93.82;75338.22;4949831;28;20300;-70
2022/06/29 09:53:12;;;;;;;;;;;;;;;-142.75;86.65;75332.31;4949743;28;19915;-68
2022/06/29 09:55:37;;;;;;;;;;;;;;;-142.75;86.89;75324.44;4949711;28;19918;-68
2022/06/29 09:58:03;;;;;;;;;;;;;;;-142.75;92.35;75314.59;4949339;28;19918;-68
2022/06/29 10:03:13;;;;;;;;;;;;;;;-142.75;84.98;75285.09;4952581;28;19922;-68
2022/06/29 10:06:05;;;;;;;;;;;;;;;-142.75;90.68;75265.41;4951597;28;19915;-68
2022/06/29 10:08:25;;;;;;;;;;;;;;;-142.75;81.07;75255.56;4952161;28;19950;-68
2022/06/29 10:10:54;;;;;;;;;;;;;;;-142.75;79.49;75247.69;4952278;28;19921;-67
2022/06/29 10:13:41;;;;;;;;;;;;;;;-142.75;80.77;75239.81;4951069;28;19918;-67
2022/06/29 10:16:20;;;;;;;;;;;;;;;-142.75;88.48;75229.97;4952041;28;19920;-67
2022/06/29 10:19:03;;;;;;;;;;;;;;;-142.75;86.70;75210.31;4951965;28;19979;-66
2022/06/29 10:21:30;;;;;;;;;;;;;;;-142.75;76.06;75241.78;4952357;28;19914;-67
2022/06/29 10:23:56;;;;;;;;;;;;;;;-142.75;89.10;75167.00;4952192;28;19921;-67
2022/06/29 10:26:37;;;;;;;;;;;;;;;-142.75;85.05;75129.63;4952311;28;20316;-67
2022/06/29 10:29:05;;;;;;;;;;;;;;;-142.75;68.50;75109.94;4951861;28;20273;-67
2022/06/29 10:31:49;;;;;;;;;;;;;;;-142.75;69.55;75121.75;4952196;28;20387;-67
2022/06/29 10:34:41;;;;;;;;;;;;;;;-142.75;71.59;75147.34;4952348;28;20009;-67
2022/06/29 10:37:14;;;;;;;;;;;;;;;-142.75;70.57;75167.00;4890583;28;1760157;-67
2022/06/29 10:39:45;;;;;;;;;;;;;;;-142.75;72.59;75168.97;4951550;28;19944;-67
2022/06/29 10:45:07;;;;;;;;;;;;;;;-142.75;71.55;75163.09;4953315;29;19992;-67
2022/06/29 10:47:33;;;;;;;;;;;;;;;-142.75;71.16;75190.63;4952091;28;20438;-67
2022/06/29 10:50:24;;;;;;;;;;;;;;;-142.75;68.37;75245.72;4952968;28;19950;-67
2022/06/29 10:53:10;;;;;;;;;;;;;;;-142.75;68.87;75241.78;4958115;28;19914;-67
2022/06/29 10:55:36;;;;;;;;;;;;;;;-142.75;69.49;75208.34;4952968;28;19922;-67
2022/06/29 10:58:02;;;;;;;;;;;;;;;-142.75;69.28;75170.94;4952592;28;20560;-67
2022/06/29 11:00:29;;;;;;;;;;;;;;;-142.75;63.71;75192.59;4952910;28;19930;-68
2022/06/29 11:02:54;;;;;;;;;;;;;;;-142.75;66.07;75170.94;4953120;28;19921;-67
2022/06/29 11:05:20;;;;;;;;;;;;;;;-142.75;69.63;75143.41;4953184;28;20291;-67
2022/06/29 11:13:38;;;;;;;;;;;;;;;-142.75;70.47;75235.88;4952648;29;19921;-68
2022/06/29 11:16:05;;;;;;;;;;;;;;;-142.75;75.59;75228.00;4952783;28;19915;-68
2022/06/29 11:18:31;;;;;;;;;;;;;;;-142.75;90.46;75228.00;4952466;28;19915;-68
2022/06/29 11:21:03;;;;;;;;;;;;;;;-142.75;93.94;75228.00;4952748;28;19926;-68
2022/06/29 11:23:30;;;;;;;;;;;;;;;-142.75;88.63;75243.75;4951322;28;19940;-68
2022/06/29 11:25:55;;;;;;;;;;;;;;;-142.75;82.36;75255.56;4952647;28;19914;-69
2022/06/29 11:28:23;;;;;;;;;;;;;;;-142.75;86.49;75245.72;4952430;28;19968;-69
2022/06/29 11:30:57;;;;;;;;;;;;;;;-142.75;85.17;75200.47;4952581;28;19914;-69
2022/06/29 11:33:26;;;;;;;;;;;;;;;-142.75;71.64;75188.66;4951214;28;19918;-69
2022/06/29 11:35:51;;;;;;;;;;;;;;;-142.75;78.34;75157.19;4951245;28;19941;-68
2022/06/29 11:38:16;;;;;;;;;;;;;;;-142.75;77.09;75155.22;4950616;28;20277;-68
2022/06/29 11:40:42;;;;;;;;;;;;;;;-142.75;77.40;75147.34;4952672;29;19918;-69
2022/06/29 11:43:08;;;;;;;;;;;;;;;-142.75;76.88;75090.28;4952458;28;19925;-70
2022/06/29 11:45:41;;;;;;;;;;;;;;;-142.75;72.84;75084.38;4951181;28;19915;-70
2022/06/29 11:48:13;;;;;;;;;;;;;;;-142.75;77.10;75066.66;4952093;28;19922;-68
2022/06/29 11:50:43;;;;;;;;;;;;;;;-142.75;70.61;75086.34;4952226;28;20461;-68
2022/06/29 11:53:08;;;;;;;;;;;;;;;-142.75;67.86;75066.66;4951873;28;19942;-69
2022/06/29 11:55:40;;;;;;;;;;;;;;;-142.75;71.16;75062.72;4952340;28;19995;-69
2022/06/29 11:58:08;;;;;;;;;;;;;;;-142.75;76.09;75050.91;4951832;28;19921;-69
2022/06/29 12:00:36;;;;;;;;;;;;;;;-142.75;73.75;75045.00;4952119;28;20372;-69
2022/06/29 12:03:03;;;;;;;;;;;;;;;-142.75;73.96;75041.09;4952213;28;19920;-69
2022/06/29 12:05:28;;;;;;;;;;;;;;;-142.75;64.79;75058.78;4952131;28;20458;-68
2022/06/29 12:07:53;;;;;;;;;;;;;;;-142.75;70.79;75060.75;4951501;29;20002;-68
2022/06/29 12:10:18;;;;;;;;;;;;;;;-142.75;73.65;75048.94;4951990;28;19914;-69
2022/06/29 12:12:43;;;;;;;;;;;;;;;-142.75;73.22;75039.13;4950543;28;20442;-69
2022/06/29 12:15:09;;;;;;;;;;;;;;;-142.75;79.32;75011.56;4951840;28;19915;-69
2022/06/29 12:17:36;;;;;;;;;;;;;;;-142.75;65.74;75064.69;4950329;28;19914;-68
2022/06/29 12:20:02;;;;;;;;;;;;;;;-142.75;75.51;75031.25;4950333;28;19965;-68
2022/06/29 12:22:27;;;;;;;;;;;;;;;-142.75;73.80;75013.53;4950072;28;19950;-68
2022/06/29 12:24:52;;;;;;;;;;;;;;;-142.75;76.69;75003.69;4950309;28;19950;-69
2022/06/29 12:27:18;;;;;;;;;;;;;;;-142.75;73.07;75003.69;4950185;28;19937;-68
2022/06/29 12:29:43;;;;;;;;;;;;;;;-142.75;72.55;75009.59;4951319;28;19918;-69
2022/06/29 12:32:08;;;;;;;;;;;;;;;-142.75;62.27;75060.75;4951369;28;19915;-68
2022/06/29 12:37:10;;;;;;;;;;;;;;;-142.75;65.62;75082.41;5048421;28;19972;-69